sensor_id;sensor_type;location;lat;lon;timestamp;pressure;altitude;pressure_sealevel;temperature
22828;BMP180;11580;52.562;13.418;2022-09-01T00:01:48;101485.00;;;19.30
22828;BMP180;11580;52.562;13.418;2022-09-01T00:04:22;101489.00;;;19.30
22828;BMP180;11580;52.562;13.418;2022-09-01T00:06:52;101483.00;;;19.20
22828;BMP180;11580;52.562;13.418;2022-09-01T00:09:23;101483.00;;;19.30
22828;BMP180;11580;52.562;13.418;2022-09-01T00:11:54;101485.00;;;19.30
22828;BMP180;11580;52.562;13.418;2022-09-01T00:14:27;101469.00;;;19.30
22828;BMP180;11580;52.562;13.418;2022-09-01T00:16:56;101486.00;;;19.30
22828;BMP180;11580;52.562;13.418;2022-09-01T00:19:26;101488.00;;;19.20
22828;BMP180;11580;52.562;13.418;2022-09-01T00:21:55;101491.00;;;19.20
22828;BMP180;11580;52.562;13.418;2022-09-01T00:24:23;101489.00;;;19.20
22828;BMP180;11580;52.562;13.418;2022-09-01T00:26:51;101486.00;;;19.20
22828;BMP180;11580;52.562;13.418;2022-09-01T00:29:19;101477.00;;;19.20
22828;BMP180;11580;52.562;13.418;2022-09-01T00:31:46;101488.00;;;19.20
22828;BMP180;11580;52.562;13.418;2022-09-01T00:34:14;101484.00;;;19.20
22828;BMP180;11580;52.562;13.418;2022-09-01T00:36:43;101480.00;;;19.20
22828;BMP180;11580;52.562;13.418;2022-09-01T00:39:11;101486.00;;;19.20
22828;BMP180;11580;52.562;13.418;2022-09-01T00:41:40;101479.00;;;19.10
22828;BMP180;11580;52.562;13.418;2022-09-01T00:44:13;101476.00;;;19.10
22828;BMP180;11580;52.562;13.418;2022-09-01T00:46:44;101479.00;;;19.10
22828;BMP180;11580;52.562;13.418;2022-09-01T00:49:17;101478.00;;;19.00
22828;BMP180;11580;52.562;13.418;2022-09-01T00:51:51;101477.00;;;19.00
22828;BMP180;11580;52.562;13.418;2022-09-01T00:54:25;101471.00;;;18.90
22828;BMP180;11580;52.562;13.418;2022-09-01T00:56:54;101473.00;;;18.90
22828;BMP180;11580;52.562;13.418;2022-09-01T00:59:24;101476.00;;;18.90
22828;BMP180;11580;52.562;13.418;2022-09-01T01:01:52;101477.00;;;18.90
22828;BMP180;11580;52.562;13.418;2022-09-01T01:04:19;101460.00;;;18.80
22828;BMP180;11580;52.562;13.418;2022-09-01T01:06:52;101467.00;;;18.80
22828;BMP180;11580;52.562;13.418;2022-09-01T01:09:27;101475.00;;;18.80
22828;BMP180;11580;52.562;13.418;2022-09-01T01:11:55;101471.00;;;18.80
22828;BMP180;11580;52.562;13.418;2022-09-01T01:14:25;101480.00;;;18.80
22828;BMP180;11580;52.562;13.418;2022-09-01T01:16:54;101478.00;;;18.80
22828;BMP180;11580;52.562;13.418;2022-09-01T01:19:30;101475.00;;;18.80
22828;BMP180;11580;52.562;13.418;2022-09-01T01:22:27;101473.00;;;18.70
22828;BMP180;11580;52.562;13.418;2022-09-01T01:25:14;101479.00;;;18.70
22828;BMP180;11580;52.562;13.418;2022-09-01T01:27:44;101465.00;;;18.60
22828;BMP180;11580;52.562;13.418;2022-09-01T01:30:13;101473.00;;;18.60
22828;BMP180;11580;52.562;13.418;2022-09-01T01:32:43;101474.00;;;18.60
22828;BMP180;11580;52.562;13.418;2022-09-01T01:35:16;101469.00;;;18.60
22828;BMP180;11580;52.562;13.418;2022-09-01T01:37:46;101475.00;;;18.60
22828;BMP180;11580;52.562;13.418;2022-09-01T01:40:20;101470.00;;;18.60
22828;BMP180;11580;52.562;13.418;2022-09-01T01:42:51;101465.00;;;18.60
22828;BMP180;11580;52.562;13.418;2022-09-01T01:45:23;101468.00;;;18.60
22828;BMP180;11580;52.562;13.418;2022-09-01T01:47:52;101465.00;;;18.60
22828;BMP180;11580;52.562;13.418;2022-09-01T01:50:24;101465.00;;;18.60
22828;BMP180;11580;52.562;13.418;2022-09-01T01:52:53;101463.00;;;18.60
22828;BMP180;11580;52.562;13.418;2022-09-01T01:55:24;101450.00;;;18.60
22828;BMP180;11580;52.562;13.418;2022-09-01T01:57:55;101454.00;;;18.50
22828;BMP180;11580;52.562;13.418;2022-09-01T02:00:27;101456.00;;;18.50
22828;BMP180;11580;52.562;13.418;2022-09-01T02:02:55;101461.00;;;18.40
22828;BMP180;11580;52.562;13.418;2022-09-01T02:05:25;101453.00;;;18.40
22828;BMP180;11580;52.562;13.418;2022-09-01T02:07:55;101438.00;;;18.30
22828;BMP180;11580;52.562;13.418;2022-09-01T02:10:30;101449.00;;;18.20
22828;BMP180;11580;52.562;13.418;2022-09-01T02:13:00;101454.00;;;18.20
22828;BMP180;11580;52.562;13.418;2022-09-01T02:15:33;101457.00;;;18.10
22828;BMP180;11580;52.562;13.418;2022-09-01T02:18:05;101461.00;;;18.10
22828;BMP180;11580;52.562;13.418;2022-09-01T02:20:32;101459.00;;;18.00
22828;BMP180;11580;52.562;13.418;2022-09-01T02:22:59;101459.00;;;18.00
22828;BMP180;11580;52.562;13.418;2022-09-01T02:25:39;101461.00;;;17.90
22828;BMP180;11580;52.562;13.418;2022-09-01T02:28:11;101460.00;;;17.90
22828;BMP180;11580;52.562;13.418;2022-09-01T02:30:42;101457.00;;;17.90
22828;BMP180;11580;52.562;13.418;2022-09-01T02:33:11;101456.00;;;17.80
22828;BMP180;11580;52.562;13.418;2022-09-01T02:35:46;101458.00;;;17.80
22828;BMP180;11580;52.562;13.418;2022-09-01T02:38:15;101452.00;;;17.80
22828;BMP180;11580;52.562;13.418;2022-09-01T02:40:45;101455.00;;;17.70
22828;BMP180;11580;52.562;13.418;2022-09-01T02:43:14;101437.00;;;17.70
22828;BMP180;11580;52.562;13.418;2022-09-01T02:45:47;101458.00;;;17.60
22828;BMP180;11580;52.562;13.418;2022-09-01T02:48:19;101449.00;;;17.50
22828;BMP180;11580;52.562;13.418;2022-09-01T02:50:50;101454.00;;;17.40
22828;BMP180;11580;52.562;13.418;2022-09-01T02:53:17;101447.00;;;17.40
22828;BMP180;11580;52.562;13.418;2022-09-01T02:55:47;101449.00;;;17.30
22828;BMP180;11580;52.562;13.418;2022-09-01T02:58:14;101441.00;;;17.20
22828;BMP180;11580;52.562;13.418;2022-09-01T03:00:45;101441.00;;;17.20
22828;BMP180;11580;52.562;13.418;2022-09-01T03:03:12;101449.00;;;17.10
22828;BMP180;11580;52.562;13.418;2022-09-01T03:05:42;101438.00;;;17.00
22828;BMP180;11580;52.562;13.418;2022-09-01T03:08:11;101433.00;;;17.00
22828;BMP180;11580;52.562;13.418;2022-09-01T03:10:43;101436.00;;;16.90
22828;BMP180;11580;52.562;13.418;2022-09-01T03:13:18;101430.00;;;16.90
22828;BMP180;11580;52.562;13.418;2022-09-01T03:15:46;101416.00;;;16.80
22828;BMP180;11580;52.562;13.418;2022-09-01T03:18:16;101386.00;;;16.80
22828;BMP180;11580;52.562;13.418;2022-09-01T03:20:45;101428.00;;;16.70
22828;BMP180;11580;52.562;13.418;2022-09-01T03:23:16;101430.00;;;16.70
22828;BMP180;11580;52.562;13.418;2022-09-01T03:25:46;101419.00;;;16.70
22828;BMP180;11580;52.562;13.418;2022-09-01T03:28:15;101426.00;;;16.60
22828;BMP180;11580;52.562;13.418;2022-09-01T03:30:46;101425.00;;;16.60
22828;BMP180;11580;52.562;13.418;2022-09-01T03:33:16;101421.00;;;16.60
22828;BMP180;11580;52.562;13.418;2022-09-01T03:35:44;101432.00;;;16.50
22828;BMP180;11580;52.562;13.418;2022-09-01T03:38:13;101431.00;;;16.50
22828;BMP180;11580;52.562;13.418;2022-09-01T03:40:53;101426.00;;;16.40
22828;BMP180;11580;52.562;13.418;2022-09-01T03:43:26;101426.00;;;16.40
22828;BMP180;11580;52.562;13.418;2022-09-01T03:45:55;101428.00;;;16.40
22828;BMP180;11580;52.562;13.418;2022-09-01T03:48:27;101428.00;;;16.30
22828;BMP180;11580;52.562;13.418;2022-09-01T03:50:58;101436.00;;;16.30
22828;BMP180;11580;52.562;13.418;2022-09-01T03:53:31;101424.00;;;16.30
22828;BMP180;11580;52.562;13.418;2022-09-01T03:56:04;101436.00;;;16.20
22828;BMP180;11580;52.562;13.418;2022-09-01T03:58:34;101427.00;;;16.20
22828;BMP180;11580;52.562;13.418;2022-09-01T04:01:01;101422.00;;;16.10
22828;BMP180;11580;52.562;13.418;2022-09-01T04:03:32;101423.00;;;16.10
22828;BMP180;11580;52.562;13.418;2022-09-01T04:06:01;101431.00;;;16.10
22828;BMP180;11580;52.562;13.418;2022-09-01T04:08:31;101429.00;;;16.00
22828;BMP180;11580;52.562;13.418;2022-09-01T04:11:08;101423.00;;;16.00
22828;BMP180;11580;52.562;13.418;2022-09-01T04:13:39;101417.00;;;16.00
22828;BMP180;11580;52.562;13.418;2022-09-01T04:16:18;101422.00;;;16.00
22828;BMP180;11580;52.562;13.418;2022-09-01T04:18:59;101421.00;;;15.90
22828;BMP180;11580;52.562;13.418;2022-09-01T04:21:27;101410.00;;;15.90
22828;BMP180;11580;52.562;13.418;2022-09-01T04:23:55;101411.00;;;15.90
22828;BMP180;11580;52.562;13.418;2022-09-01T04:26:30;101419.00;;;15.90
22828;BMP180;11580;52.562;13.418;2022-09-01T04:29:00;101413.00;;;15.90
22828;BMP180;11580;52.562;13.418;2022-09-01T04:31:27;101421.00;;;15.90
22828;BMP180;11580;52.562;13.418;2022-09-01T04:33:55;101430.00;;;15.90
22828;BMP180;11580;52.562;13.418;2022-09-01T04:36:26;101400.00;;;15.90
22828;BMP180;11580;52.562;13.418;2022-09-01T04:38:59;101412.00;;;15.90
22828;BMP180;11580;52.562;13.418;2022-09-01T04:41:30;101425.00;;;15.90
22828;BMP180;11580;52.562;13.418;2022-09-01T04:44:05;101422.00;;;15.90
22828;BMP180;11580;52.562;13.418;2022-09-01T04:46:39;101423.00;;;15.90
22828;BMP180;11580;52.562;13.418;2022-09-01T04:49:09;101424.00;;;15.90
22828;BMP180;11580;52.562;13.418;2022-09-01T04:51:38;101421.00;;;15.90
22828;BMP180;11580;52.562;13.418;2022-09-01T04:54:07;101418.00;;;15.90
22828;BMP180;11580;52.562;13.418;2022-09-01T04:56:38;101425.00;;;15.90
22828;BMP180;11580;52.562;13.418;2022-09-01T04:59:14;101425.00;;;15.90
22828;BMP180;11580;52.562;13.418;2022-09-01T05:01:45;101428.00;;;15.90
22828;BMP180;11580;52.562;13.418;2022-09-01T05:04:19;101431.00;;;15.90
22828;BMP180;11580;52.562;13.418;2022-09-01T05:06:51;101428.00;;;15.90
22828;BMP180;11580;52.562;13.418;2022-09-01T05:09:21;101432.00;;;16.00
22828;BMP180;11580;52.562;13.418;2022-09-01T05:11:58;101427.00;;;16.00
22828;BMP180;11580;52.562;13.418;2022-09-01T05:14:38;101408.00;;;16.00
22828;BMP180;11580;52.562;13.418;2022-09-01T05:17:09;101426.00;;;16.00
22828;BMP180;11580;52.562;13.418;2022-09-01T05:19:39;101434.00;;;16.10
22828;BMP180;11580;52.562;13.418;2022-09-01T05:22:09;101428.00;;;16.10
22828;BMP180;11580;52.562;13.418;2022-09-01T05:24:41;101426.00;;;16.00
22828;BMP180;11580;52.562;13.418;2022-09-01T05:27:10;101427.00;;;16.10
22828;BMP180;11580;52.562;13.418;2022-09-01T05:29:42;101428.00;;;16.20
22828;BMP180;11580;52.562;13.418;2022-09-01T05:32:10;101427.00;;;16.20
22828;BMP180;11580;52.562;13.418;2022-09-01T05:34:39;101429.00;;;16.30
22828;BMP180;11580;52.562;13.418;2022-09-01T05:37:09;101427.00;;;16.30
22828;BMP180;11580;52.562;13.418;2022-09-01T05:39:38;101437.00;;;16.30
22828;BMP180;11580;52.562;13.418;2022-09-01T05:42:05;101430.00;;;16.30
22828;BMP180;11580;52.562;13.418;2022-09-01T05:44:34;101407.00;;;16.40
22828;BMP180;11580;52.562;13.418;2022-09-01T05:47:04;101425.00;;;16.40
22828;BMP180;11580;52.562;13.418;2022-09-01T05:49:34;101439.00;;;16.50
22828;BMP180;11580;52.562;13.418;2022-09-01T05:52:03;101432.00;;;16.50
22828;BMP180;11580;52.562;13.418;2022-09-01T05:54:34;101442.00;;;16.60
22828;BMP180;11580;52.562;13.418;2022-09-01T05:57:03;101426.00;;;16.70
22828;BMP180;11580;52.562;13.418;2022-09-01T05:59:32;101443.00;;;16.70
22828;BMP180;11580;52.562;13.418;2022-09-01T06:02:05;101431.00;;;16.80
22828;BMP180;11580;52.562;13.418;2022-09-01T06:04:34;101443.00;;;16.90
22828;BMP180;11580;52.562;13.418;2022-09-01T06:07:11;101441.00;;;17.00
22828;BMP180;11580;52.562;13.418;2022-09-01T06:09:45;101442.00;;;17.00
22828;BMP180;11580;52.562;13.418;2022-09-01T06:12:15;101443.00;;;17.10
22828;BMP180;11580;52.562;13.418;2022-09-01T06:14:51;101436.00;;;17.20
22828;BMP180;11580;52.562;13.418;2022-09-01T06:17:23;101449.00;;;17.30
22828;BMP180;11580;52.562;13.418;2022-09-01T06:19:52;101446.00;;;17.40
22828;BMP180;11580;52.562;13.418;2022-09-01T06:22:23;101439.00;;;17.50
22828;BMP180;11580;52.562;13.418;2022-09-01T06:24:51;101447.00;;;17.50
22828;BMP180;11580;52.562;13.418;2022-09-01T06:27:20;101444.00;;;17.60
22828;BMP180;11580;52.562;13.418;2022-09-01T06:29:48;101444.00;;;17.70
22828;BMP180;11580;52.562;13.418;2022-09-01T06:32:20;101450.00;;;17.80
22828;BMP180;11580;52.562;13.418;2022-09-01T06:34:50;101451.00;;;17.80
22828;BMP180;11580;52.562;13.418;2022-09-01T06:37:18;101456.00;;;18.00
22828;BMP180;11580;52.562;13.418;2022-09-01T06:39:50;101456.00;;;18.10
22828;BMP180;11580;52.562;13.418;2022-09-01T06:42:17;101452.00;;;18.20
22828;BMP180;11580;52.562;13.418;2022-09-01T06:44:51;101456.00;;;18.30
22828;BMP180;11580;52.562;13.418;2022-09-01T06:47:19;101454.00;;;18.40
22828;BMP180;11580;52.562;13.418;2022-09-01T06:49:47;101462.00;;;18.40
22828;BMP180;11580;52.562;13.418;2022-09-01T06:52:18;101462.00;;;18.50
22828;BMP180;11580;52.562;13.418;2022-09-01T06:54:46;101464.00;;;18.60
22828;BMP180;11580;52.562;13.418;2022-09-01T06:57:16;101474.00;;;18.60
22828;BMP180;11580;52.562;13.418;2022-09-01T06:59:44;101471.00;;;18.70
22828;BMP180;11580;52.562;13.418;2022-09-01T07:02:13;101466.00;;;18.80
22828;BMP180;11580;52.562;13.418;2022-09-01T07:05:12;101470.00;;;18.90
22828;BMP180;11580;52.562;13.418;2022-09-01T07:07:47;101455.00;;;19.00
22828;BMP180;11580;52.562;13.418;2022-09-01T07:10:41;101469.00;;;19.10
22828;BMP180;11580;52.562;13.418;2022-09-01T07:13:18;101469.00;;;19.20
22828;BMP180;11580;52.562;13.418;2022-09-01T07:15:50;101476.00;;;19.30
22828;BMP180;11580;52.562;13.418;2022-09-01T07:18:22;101478.00;;;19.40
22828;BMP180;11580;52.562;13.418;2022-09-01T07:20:54;101474.00;;;19.50
22828;BMP180;11580;52.562;13.418;2022-09-01T07:23:21;101475.00;;;19.60
22828;BMP180;11580;52.562;13.418;2022-09-01T07:25:52;101489.00;;;19.60
22828;BMP180;11580;52.562;13.418;2022-09-01T07:28:28;101485.00;;;19.70
22828;BMP180;11580;52.562;13.418;2022-09-01T07:30:58;101476.00;;;19.70
22828;BMP180;11580;52.562;13.418;2022-09-01T07:33:26;101480.00;;;19.70
22828;BMP180;11580;52.562;13.418;2022-09-01T07:35:57;101487.00;;;19.80
22828;BMP180;11580;52.562;13.418;2022-09-01T07:38:25;101486.00;;;19.80
22828;BMP180;11580;52.562;13.418;2022-09-01T07:40:53;101477.00;;;19.90
22828;BMP180;11580;52.562;13.418;2022-09-01T07:43:53;101494.00;;;19.90
22828;BMP180;11580;52.562;13.418;2022-09-01T07:46:28;101484.00;;;19.80
22828;BMP180;11580;52.562;13.418;2022-09-01T07:48:57;101490.00;;;20.00
22828;BMP180;11580;52.562;13.418;2022-09-01T07:51:29;101487.00;;;20.10
22828;BMP180;11580;52.562;13.418;2022-09-01T07:53:58;101482.00;;;20.20
22828;BMP180;11580;52.562;13.418;2022-09-01T07:56:28;101485.00;;;20.30
22828;BMP180;11580;52.562;13.418;2022-09-01T07:58:57;101494.00;;;20.40
22828;BMP180;11580;52.562;13.418;2022-09-01T08:01:26;101502.00;;;20.50
22828;BMP180;11580;52.562;13.418;2022-09-01T08:03:56;101504.00;;;20.60
22828;BMP180;11580;52.562;13.418;2022-09-01T08:06:28;101498.00;;;20.60
22828;BMP180;11580;52.562;13.418;2022-09-01T08:08:58;101500.00;;;20.70
22828;BMP180;11580;52.562;13.418;2022-09-01T08:11:29;101501.00;;;20.80
22828;BMP180;11580;52.562;13.418;2022-09-01T08:13:58;101497.00;;;20.90
22828;BMP180;11580;52.562;13.418;2022-09-01T08:16:28;101482.00;;;20.90
22828;BMP180;11580;52.562;13.418;2022-09-01T08:18:58;101507.00;;;21.00
22828;BMP180;11580;52.562;13.418;2022-09-01T08:21:49;101509.00;;;21.00
22828;BMP180;11580;52.562;13.418;2022-09-01T08:24:40;101506.00;;;21.00
22828;BMP180;11580;52.562;13.418;2022-09-01T08:27:07;101509.00;;;21.10
22828;BMP180;11580;52.562;13.418;2022-09-01T08:29:35;101507.00;;;21.10
22828;BMP180;11580;52.562;13.418;2022-09-01T08:32:02;101506.00;;;21.10
22828;BMP180;11580;52.562;13.418;2022-09-01T08:34:31;101506.00;;;21.20
22828;BMP180;11580;52.562;13.418;2022-09-01T08:37:01;101509.00;;;21.20
22828;BMP180;11580;52.562;13.418;2022-09-01T08:39:28;101509.00;;;21.20
22828;BMP180;11580;52.562;13.418;2022-09-01T08:42:09;101503.00;;;21.30
22828;BMP180;11580;52.562;13.418;2022-09-01T08:44:48;101501.00;;;21.40
22828;BMP180;11580;52.562;13.418;2022-09-01T08:47:19;101502.00;;;21.50
22828;BMP180;11580;52.562;13.418;2022-09-01T08:49:48;101503.00;;;21.50
22828;BMP180;11580;52.562;13.418;2022-09-01T08:52:42;101499.00;;;21.60
22828;BMP180;11580;52.562;13.418;2022-09-01T08:55:18;101507.00;;;21.70
22828;BMP180;11580;52.562;13.418;2022-09-01T08:57:51;101506.00;;;21.70
22828;BMP180;11580;52.562;13.418;2022-09-01T09:00:25;101494.00;;;21.70
22828;BMP180;11580;52.562;13.418;2022-09-01T09:03:13;101500.00;;;21.80
22828;BMP180;11580;52.562;13.418;2022-09-01T09:05:58;101499.00;;;21.90
22828;BMP180;11580;52.562;13.418;2022-09-01T09:08:51;101506.00;;;21.90
22828;BMP180;11580;52.562;13.418;2022-09-01T09:14:44;101496.00;;;22.00
22828;BMP180;11580;52.562;13.418;2022-09-01T09:17:20;101489.00;;;22.10
22828;BMP180;11580;52.562;13.418;2022-09-01T09:19:48;101493.00;;;22.20
22828;BMP180;11580;52.562;13.418;2022-09-01T09:22:18;101494.00;;;22.30
22828;BMP180;11580;52.562;13.418;2022-09-01T09:24:51;101495.00;;;22.40
22828;BMP180;11580;52.562;13.418;2022-09-01T09:27:23;101494.00;;;22.50
22828;BMP180;11580;52.562;13.418;2022-09-01T09:29:53;101493.00;;;22.60
22828;BMP180;11580;52.562;13.418;2022-09-01T09:32:24;101493.00;;;22.70
22828;BMP180;11580;52.562;13.418;2022-09-01T09:35:21;101492.00;;;22.80
22828;BMP180;11580;52.562;13.418;2022-09-01T09:37:49;101482.00;;;22.90
22828;BMP180;11580;52.562;13.418;2022-09-01T09:40:20;101487.00;;;22.90
22828;BMP180;11580;52.562;13.418;2022-09-01T09:43:07;101491.00;;;23.00
22828;BMP180;11580;52.562;13.418;2022-09-01T09:45:37;101487.00;;;23.10
22828;BMP180;11580;52.562;13.418;2022-09-01T09:48:08;101490.00;;;23.20
22828;BMP180;11580;52.562;13.418;2022-09-01T09:50:38;101491.00;;;23.30
22828;BMP180;11580;52.562;13.418;2022-09-01T09:53:16;101493.00;;;23.30
22828;BMP180;11580;52.562;13.418;2022-09-01T09:55:57;101479.00;;;23.40
22828;BMP180;11580;52.562;13.418;2022-09-01T09:58:33;101474.00;;;23.50
22828;BMP180;11580;52.562;13.418;2022-09-01T10:01:08;101483.00;;;23.60
22828;BMP180;11580;52.562;13.418;2022-09-01T10:03:44;101495.00;;;23.70
22828;BMP180;11580;52.562;13.418;2022-09-01T10:06:31;101487.00;;;23.90
22828;BMP180;11580;52.562;13.418;2022-09-01T10:09:02;101497.00;;;24.00
22828;BMP180;11580;52.562;13.418;2022-09-01T10:11:38;101489.00;;;24.10
22828;BMP180;11580;52.562;13.418;2022-09-01T10:14:15;101487.00;;;24.20
22828;BMP180;11580;52.562;13.418;2022-09-01T10:16:46;101483.00;;;24.20
22828;BMP180;11580;52.562;13.418;2022-09-01T10:19:15;101498.00;;;24.30
22828;BMP180;11580;52.562;13.418;2022-09-01T10:21:44;101496.00;;;24.30
22828;BMP180;11580;52.562;13.418;2022-09-01T10:24:21;101478.00;;;24.40
22828;BMP180;11580;52.562;13.418;2022-09-01T10:26:56;101490.00;;;24.50
22828;BMP180;11580;52.562;13.418;2022-09-01T10:29:29;101486.00;;;24.60
22828;BMP180;11580;52.562;13.418;2022-09-01T10:31:59;101493.00;;;24.60
22828;BMP180;11580;52.562;13.418;2022-09-01T10:34:33;101491.00;;;24.80
22828;BMP180;11580;52.562;13.418;2022-09-01T10:37:01;101494.00;;;24.90
22828;BMP180;11580;52.562;13.418;2022-09-01T10:39:29;101485.00;;;24.90
22828;BMP180;11580;52.562;13.418;2022-09-01T10:41:59;101489.00;;;25.10
22828;BMP180;11580;52.562;13.418;2022-09-01T10:44:34;101494.00;;;25.30
22828;BMP180;11580;52.562;13.418;2022-09-01T10:47:11;101490.00;;;25.40
22828;BMP180;11580;52.562;13.418;2022-09-01T10:50:00;101492.00;;;25.50
22828;BMP180;11580;52.562;13.418;2022-09-01T10:53:01;101491.00;;;25.50
22828;BMP180;11580;52.562;13.418;2022-09-01T10:55:35;101489.00;;;25.50
22828;BMP180;11580;52.562;13.418;2022-09-01T10:58:49;101496.00;;;25.40
22828;BMP180;11580;52.562;13.418;2022-09-01T11:02:04;101497.00;;;25.40
22828;BMP180;11580;52.562;13.418;2022-09-01T11:05:13;101481.00;;;25.40
22828;BMP180;11580;52.562;13.418;2022-09-01T11:07:41;101487.00;;;25.40
22828;BMP180;11580;52.562;13.418;2022-09-01T11:10:27;101467.00;;;25.40
22828;BMP180;11580;52.562;13.418;2022-09-01T11:13:27;101472.00;;;25.40
22828;BMP180;11580;52.562;13.418;2022-09-01T11:16:30;101475.00;;;25.40
22828;BMP180;11580;52.562;13.418;2022-09-01T11:19:37;101477.00;;;25.30
22828;BMP180;11580;52.562;13.418;2022-09-01T11:22:20;101478.00;;;25.40
22828;BMP180;11580;52.562;13.418;2022-09-01T11:25:33;101471.00;;;25.50
22828;BMP180;11580;52.562;13.418;2022-09-01T11:28:39;101467.00;;;25.60
22828;BMP180;11580;52.562;13.418;2022-09-01T11:31:28;101478.00;;;25.70
22828;BMP180;11580;52.562;13.418;2022-09-01T11:34:08;101477.00;;;25.80
22828;BMP180;11580;52.562;13.418;2022-09-01T11:36:51;101472.00;;;25.90
22828;BMP180;11580;52.562;13.418;2022-09-01T11:39:35;101480.00;;;26.00
22828;BMP180;11580;52.562;13.418;2022-09-01T11:42:10;101484.00;;;26.00
22828;BMP180;11580;52.562;13.418;2022-09-01T11:44:48;101477.00;;;26.00
22828;BMP180;11580;52.562;13.418;2022-09-01T11:47:21;101482.00;;;26.10
22828;BMP180;11580;52.562;13.418;2022-09-01T11:49:54;101477.00;;;26.10
22828;BMP180;11580;52.562;13.418;2022-09-01T11:52:26;101489.00;;;26.10
22828;BMP180;11580;52.562;13.418;2022-09-01T11:54:56;101486.00;;;26.10
22828;BMP180;11580;52.562;13.418;2022-09-01T11:57:28;101492.00;;;26.10
22828;BMP180;11580;52.562;13.418;2022-09-01T12:00:00;101461.00;;;26.10
22828;BMP180;11580;52.562;13.418;2022-09-01T12:02:45;101490.00;;;26.00
22828;BMP180;11580;52.562;13.418;2022-09-01T12:05:28;101472.00;;;25.90
22828;BMP180;11580;52.562;13.418;2022-09-01T12:07:57;101487.00;;;25.80
22828;BMP180;11580;52.562;13.418;2022-09-01T12:10:32;101475.00;;;25.80
22828;BMP180;11580;52.562;13.418;2022-09-01T12:13:02;101480.00;;;25.80
22828;BMP180;11580;52.562;13.418;2022-09-01T12:15:34;101487.00;;;25.80
22828;BMP180;11580;52.562;13.418;2022-09-01T12:18:14;101480.00;;;25.70
22828;BMP180;11580;52.562;13.418;2022-09-01T12:20:46;101452.00;;;25.60
22828;BMP180;11580;52.562;13.418;2022-09-01T12:23:24;101478.00;;;25.60
22828;BMP180;11580;52.562;13.418;2022-09-01T12:25:53;101482.00;;;25.50
22828;BMP180;11580;52.562;13.418;2022-09-01T12:28:23;101473.00;;;25.40
22828;BMP180;11580;52.562;13.418;2022-09-01T12:30:53;101475.00;;;25.30
22828;BMP180;11580;52.562;13.418;2022-09-01T12:33:20;101468.00;;;25.30
22828;BMP180;11580;52.562;13.418;2022-09-01T12:35:49;101465.00;;;25.30
22828;BMP180;11580;52.562;13.418;2022-09-01T12:38:28;101461.00;;;25.20
22828;BMP180;11580;52.562;13.418;2022-09-01T12:40:57;101483.00;;;25.10
22828;BMP180;11580;52.562;13.418;2022-09-01T12:43:34;101464.00;;;25.00
22828;BMP180;11580;52.562;13.418;2022-09-01T12:46:04;101468.00;;;24.90
22828;BMP180;11580;52.562;13.418;2022-09-01T12:48:34;101470.00;;;24.80
22828;BMP180;11580;52.562;13.418;2022-09-01T12:51:06;101463.00;;;24.80
22828;BMP180;11580;52.562;13.418;2022-09-01T12:53:51;101444.00;;;24.80
22828;BMP180;11580;52.562;13.418;2022-09-01T12:56:26;101470.00;;;24.80
22828;BMP180;11580;52.562;13.418;2022-09-01T12:59:08;101468.00;;;24.80
22828;BMP180;11580;52.562;13.418;2022-09-01T13:01:40;101455.00;;;24.90
22828;BMP180;11580;52.562;13.418;2022-09-01T13:04:25;101451.00;;;25.10
22828;BMP180;11580;52.562;13.418;2022-09-01T13:06:59;101447.00;;;25.20
22828;BMP180;11580;52.562;13.418;2022-09-01T13:09:26;101453.00;;;25.40
22828;BMP180;11580;52.562;13.418;2022-09-01T13:12:10;101444.00;;;25.60
22828;BMP180;11580;52.562;13.418;2022-09-01T13:14:37;101452.00;;;25.70
22828;BMP180;11580;52.562;13.418;2022-09-01T13:17:06;101454.00;;;25.80
22828;BMP180;11580;52.562;13.418;2022-09-01T13:19:33;101452.00;;;25.80
22828;BMP180;11580;52.562;13.418;2022-09-01T13:22:00;101454.00;;;25.80
22828;BMP180;11580;52.562;13.418;2022-09-01T13:24:28;101450.00;;;25.90
22828;BMP180;11580;52.562;13.418;2022-09-01T13:26:55;101450.00;;;25.90
22828;BMP180;11580;52.562;13.418;2022-09-01T13:29:23;101452.00;;;26.00
22828;BMP180;11580;52.562;13.418;2022-09-01T13:31:50;101449.00;;;26.00
22828;BMP180;11580;52.562;13.418;2022-09-01T13:34:19;101448.00;;;25.90
22828;BMP180;11580;52.562;13.418;2022-09-01T13:36:46;101443.00;;;25.90
22828;BMP180;11580;52.562;13.418;2022-09-01T13:39:13;101440.00;;;25.90
22828;BMP180;11580;52.562;13.418;2022-09-01T13:41:40;101447.00;;;25.90
22828;BMP180;11580;52.562;13.418;2022-09-01T13:44:08;101445.00;;;25.90
22828;BMP180;11580;52.562;13.418;2022-09-01T13:46:36;101443.00;;;25.90
22828;BMP180;11580;52.562;13.418;2022-09-01T13:49:03;101427.00;;;26.00
22828;BMP180;11580;52.562;13.418;2022-09-01T13:51:32;101442.00;;;26.00
22828;BMP180;11580;52.562;13.418;2022-09-01T13:54:02;101437.00;;;26.10
22828;BMP180;11580;52.562;13.418;2022-09-01T13:56:29;101441.00;;;26.10
22828;BMP180;11580;52.562;13.418;2022-09-01T13:58:57;101437.00;;;26.20
22828;BMP180;11580;52.562;13.418;2022-09-01T14:01:24;101439.00;;;26.20
22828;BMP180;11580;52.562;13.418;2022-09-01T14:03:51;101441.00;;;26.20
22828;BMP180;11580;52.562;13.418;2022-09-01T14:06:18;101444.00;;;26.30
22828;BMP180;11580;52.562;13.418;2022-09-01T14:08:47;101444.00;;;26.30
22828;BMP180;11580;52.562;13.418;2022-09-01T14:11:16;101435.00;;;26.30
22828;BMP180;11580;52.562;13.418;2022-09-01T14:13:45;101438.00;;;26.30
22828;BMP180;11580;52.562;13.418;2022-09-01T14:16:13;101433.00;;;26.20
22828;BMP180;11580;52.562;13.418;2022-09-01T14:18:41;101423.00;;;26.20
22828;BMP180;11580;52.562;13.418;2022-09-01T14:21:12;101429.00;;;26.10